Time;durP1;ratioP1;P1;durP2;ratioP2;P2;SDS_P1;SDS_P2;PMS_P1;PMS_P2;Temp;Humidity;BMP_temperature;BMP_pressure;BME280_temperature;BME280_humidity;BME280_pressure;Samples;Min_cycle;Max_cycle;Signal;HPM_P1;HPM_P2
2023/09/28 00:02:52;;;;;;;5.37;3.47;;;;;;;13.85;100.00;149574.13;4900294;28;20335;-53
2023/09/28 00:05:19;;;;;;;6.07;3.00;;;;;;;14.01;100.00;149614.06;4900118;29;20259;-51
2023/09/28 00:07:47;;;;;;;5.67;3.27;;;;;;;13.97;100.00;149604.09;4902102;28;20229;-50
2023/09/28 00:10:16;;;;;;;4.63;2.80;;;;;;;14.07;98.84;149627.81;4915254;29;20584;-53
2023/09/28 00:12:48;;;;;;;7.57;3.27;;;;;;;14.01;100.00;149612.84;4902015;28;20249;-51
2023/09/28 00:15:15;;;;;;;7.20;3.30;;;;;;;14.14;100.00;149644.03;4899426;29;20236;-52
2023/09/28 00:17:42;;;;;;;5.43;3.40;;;;;;;14.13;100.00;149642.81;4902128;28;20320;-51
2023/09/28 00:20:13;;;;;;;4.23;2.83;;;;;;;14.07;100.00;149627.81;4899982;29;20234;-51
2023/09/28 00:22:39;;;;;;;4.63;3.00;;;;;;;14.07;100.00;149627.81;4902565;28;20244;-52
2023/09/28 00:25:09;;;;;;;5.60;3.47;;;;;;;14.07;100.00;149627.81;4902868;29;20249;-51
2023/09/28 00:27:37;;;;;;;5.97;3.33;;;;;;;14.07;100.00;149626.56;4900954;28;20237;-54
2023/09/28 00:30:06;;;;;;;5.57;3.27;;;;;;;14.10;100.00;149635.31;4901803;29;20224;-53
2023/09/28 00:32:33;;;;;;;5.13;3.40;;;;;;;14.05;100.00;149621.56;4900050;29;20241;-53
2023/09/28 00:34:59;;;;;;;5.90;3.37;;;;;;;13.99;100.00;149609.06;4914870;29;20311;-54
2023/09/28 00:37:25;;;;;;;7.03;2.97;;;;;;;14.01;100.00;149612.84;4912367;28;20221;-53
2023/09/28 00:39:54;;;;;;;5.20;3.00;;;;;;;14.03;100.00;149617.84;4900462;29;20237;-50
2023/09/28 00:42:21;;;;;;;7.40;3.83;;;;;;;14.12;100.00;149639.03;4898061;29;20240;-52
2023/09/28 00:44:49;;;;;;;8.97;3.33;;;;;;;14.28;100.00;149677.75;4915983;29;20229;-52
2023/09/28 00:47:15;;;;;;;6.20;3.30;;;;;;;14.21;100.00;149660.28;4911792;28;20225;-51
2023/09/28 00:49:43;;;;;;;8.50;2.87;;;;;;;14.20;100.00;149659.00;4913482;29;20225;-52
2023/09/28 00:52:10;;;;;;;7.57;3.53;;;;;;;14.19;100.00;149655.28;4894346;28;20241;-51
2023/09/28 00:54:38;;;;;;;6.43;3.23;;;;;;;14.21;100.00;149661.50;4911298;29;20232;-52
2023/09/28 00:57:05;;;;;;;5.97;3.40;;;;;;;14.18;100.00;149654.03;4910619;28;20237;-53
2023/09/28 00:59:32;;;;;;;8.20;3.50;;;;;;;14.20;100.00;149657.78;4895652;29;20639;-51
2023/09/28 01:02:04;;;;;;;6.77;3.30;;;;;;;14.21;100.00;149660.28;4895702;29;20230;-52
2023/09/28 01:04:30;;;;;;;5.33;3.23;;;;;;;14.22;100.00;149664.00;4909100;29;20238;-51
2023/09/28 01:07:04;;;;;;;6.67;3.40;;;;;;;14.25;100.00;149670.28;4912546;29;20305;-50
2023/09/28 01:09:30;;;;;;;6.43;3.53;;;;;;;14.25;100.00;149671.50;4893747;29;20874;-51
2023/09/28 01:12:04;;;;;;;7.17;2.80;;;;;;;14.26;100.00;149672.75;4913810;29;20240;-51
2023/09/28 01:14:32;;;;;;;8.80;3.50;;;;;;;14.27;100.00;149676.50;4895805;29;20294;-51
2023/09/28 01:17:04;;;;;;;6.77;3.30;;;;;;;14.23;100.00;149665.28;4912687;28;20232;-52
2023/09/28 01:19:55;;;;;;;6.70;3.90;;;;;;;14.29;100.00;149681.47;4910089;29;20767;-51
2023/09/28 01:22:23;;;;;;;7.37;3.40;;;;;;;14.42;100.00;149711.44;4910024;29;20594;-51
2023/09/28 01:24:48;;;;;;;7.93;3.23;;;;;;;14.38;100.00;149701.47;4897997;29;20245;-53
2023/09/28 01:27:15;;;;;;;4.90;3.33;;;;;;;14.41;99.95;149708.94;4910062;29;20222;-51
2023/09/28 01:29:41;;;;;;;8.37;3.50;;;;;;;14.42;99.45;149711.44;4911517;29;20573;-53
2023/09/28 01:32:07;;;;;;;6.40;3.40;;;;;;;14.43;100.00;149715.16;4895173;28;20246;-53
2023/09/28 01:34:33;;;;;;;5.63;3.53;;;;;;;14.39;100.00;149703.97;4914854;29;20697;-52
2023/09/28 01:37:02;;;;;;;6.67;3.60;;;;;;;14.42;100.00;149711.44;4912305;29;20238;-51
2023/09/28 01:39:30;;;;;;;4.40;3.40;;;;;;;14.41;100.00;149708.94;4895716;29;20314;-52
2023/09/28 01:42:02;;;;;;;5.40;3.07;;;;;;;14.37;100.00;149700.19;4898914;28;20219;-54
2023/09/28 01:44:27;;;;;;;5.17;3.60;;;;;;;14.30;100.00;149683.97;4912368;29;20236;-51
2023/09/28 01:46:54;;;;;;;4.63;3.60;;;;;;;14.32;100.00;149688.97;4899870;29;20237;-51
2023/09/28 01:49:20;;;;;;;6.43;3.37;;;;;;;14.28;100.00;149677.75;4909181;29;20232;-51
2023/09/28 01:51:46;;;;;;;7.90;4.43;;;;;;;14.23;100.00;149665.28;4911382;29;20263;-51
2023/09/28 01:54:12;;;;;;;6.33;3.67;;;;;;;14.20;100.00;149659.00;4906950;29;20244;-51
2023/09/28 01:56:40;;;;;;;6.93;3.50;;;;;;;14.24;100.00;149669.00;4911528;29;20233;-51
2023/09/28 01:59:06;;;;;;;8.73;3.73;;;;;;;14.20;100.00;149659.00;4910815;29;20235;-51
2023/09/28 02:01:32;;;;;;;8.80;3.70;;;;;;;14.20;100.00;149659.00;4908489;29;20234;-53
2023/09/28 02:03:59;;;;;;;6.40;3.60;;;;;;;14.59;97.83;149753.91;4895994;29;20257;-52
2023/09/28 02:06:24;;;;;;;6.37;3.43;;;;;;;14.58;99.75;149750.13;4893960;28;20600;-51
2023/09/28 02:08:51;;;;;;;4.53;3.30;;;;;;;14.81;96.07;149806.41;4909664;29;20248;-52
2023/09/28 02:11:16;;;;;;;11.80;3.83;;;;;;;14.66;97.87;149770.13;4910341;29;20579;-52
2023/09/28 02:13:44;;;;;;;6.17;3.83;;;;;;;14.59;99.18;149753.91;4912212;29;20233;-52
2023/09/28 02:16:11;;;;;;;9.40;3.97;;;;;;;14.54;100.00;149741.41;4897449;29;20232;-51
2023/09/28 02:18:41;;;;;;;6.17;3.50;;;;;;;14.51;100.00;149733.94;4902760;29;20572;-51
2023/09/28 02:21:12;;;;;;;5.10;3.50;;;;;;;14.49;100.00;149728.94;4915353;29;20578;-51
2023/09/28 02:23:39;;;;;;;5.60;3.63;;;;;;;14.51;100.00;149732.66;4915823;29;20233;-53
2023/09/28 02:26:05;;;;;;;5.17;3.13;;;;;;;14.49;100.00;149728.94;4918535;29;20230;-51
2023/09/28 02:28:33;;;;;;;5.57;3.50;;;;;;;14.50;100.00;149730.16;4897118;29;20247;-51
2023/09/28 02:31:06;;;;;;;7.67;3.57;;;;;;;14.58;100.00;149750.13;4898314;29;20231;-53
2023/09/28 02:33:32;;;;;;;6.57;3.30;;;;;;;14.54;100.00;149740.16;4913173;29;20319;-51
2023/09/28 02:35:58;;;;;;;6.73;3.20;;;;;;;14.60;100.00;149755.13;4901992;29;20233;-51
2023/09/28 02:38:25;;;;;;;6.47;3.63;;;;;;;14.64;100.00;149765.13;4911484;28;20306;-51
2023/09/28 02:40:50;;;;;;;8.50;3.50;;;;;;;14.63;100.00;149762.63;4916005;29;20239;-53
2023/09/28 02:43:17;;;;;;;5.00;3.17;;;;;;;14.61;100.00;149758.91;4912402;29;20229;-51
2023/09/28 02:45:43;;;;;;;7.87;3.37;;;;;;;14.68;100.00;149773.88;4918051;29;20338;-51
2023/09/28 02:48:12;;;;;;;6.33;3.90;;;;;;;14.76;97.95;149793.91;4910260;29;20238;-52
2023/09/28 02:50:38;;;;;;;5.43;3.50;;;;;;;14.76;97.37;149793.91;4899856;29;20291;-51
2023/09/28 02:53:07;;;;;;;6.33;3.57;;;;;;;14.77;98.87;149796.41;4899424;29;20297;-52
2023/09/28 02:55:32;;;;;;;8.40;3.50;;;;;;;14.75;98.17;149792.63;4911825;29;20259;-51
2023/09/28 02:57:59;;;;;;;7.00;3.43;;;;;;;14.82;96.43;149808.91;4914498;28;20228;-52
2023/09/28 03:00:27;;;;;;;8.20;3.30;;;;;;;14.82;97.11;149807.63;4911634;29;20230;-52
2023/09/28 03:02:56;;;;;;;6.60;3.07;;;;;;;14.91;94.48;149831.34;4916355;29;20352;-51
2023/09/28 03:05:24;;;;;;;10.93;3.97;;;;;;;14.93;94.21;149835.09;4899417;29;20230;-51
2023/09/28 03:07:51;;;;;;;6.63;3.43;;;;;;;14.91;94.89;149830.13;4914368;29;20268;-51
2023/09/28 03:10:17;;;;;;;8.93;3.43;;;;;;;14.98;94.28;149846.31;4911726;28;20237;-52
2023/09/28 03:12:46;;;;;;;7.77;3.37;;;;;;;14.93;93.66;149833.84;4899424;29;20254;-51
2023/09/28 03:15:13;;;;;;;6.37;3.77;;;;;;;15.11;90.73;149878.81;4896183;28;20220;-51
2023/09/28 03:17:41;;;;;;;6.33;3.80;;;;;;;15.18;90.87;149895.06;4915315;29;20239;-51
2023/09/28 03:20:10;;;;;;;5.13;3.40;;;;;;;15.12;90.92;149880.06;4914801;28;20318;-52
2023/09/28 03:22:38;;;;;;;8.07;3.83;;;;;;;15.04;93.18;149861.31;4913577;29;20235;-51
2023/09/28 03:25:11;;;;;;;5.73;3.87;;;;;;;15.00;94.87;149851.31;4898696;29;20621;-51
2023/09/28 03:27:37;;;;;;;4.30;3.10;;;;;;;15.00;94.06;149852.59;4898999;29;20294;-51
2023/09/28 03:32:54;;;;;;;4.20;2.90;;;;;;;14.90;93.75;149827.63;4990961;23;20342;-51
2023/09/28 03:35:20;;;;;;;7.60;3.67;;;;;;;14.88;93.52;149823.84;4917945;28;20689;-51
2023/09/28 03:37:48;;;;;;;7.37;3.30;;;;;;;14.94;92.45;149837.59;4917722;29;20245;-51
2023/09/28 03:40:16;;;;;;;9.57;3.70;;;;;;;14.87;95.65;149821.34;4915933;28;20238;-53
2023/09/28 03:42:44;;;;;;;8.13;3.50;;;;;;;14.83;98.01;149810.13;4920654;28;20245;-51
2023/09/28 03:45:14;;;;;;;6.00;3.20;;;;;;;14.75;97.33;149792.63;4933103;23;20236;-57
2023/09/28 03:47:42;;;;;;;6.03;3.87;;;;;;;14.76;97.75;149795.13;4925787;28;20233;-57
2023/09/28 03:50:10;;;;;;;6.40;3.67;;;;;;;14.76;95.38;149793.91;4925707;28;20228;-56
2023/09/28 03:52:38;;;;;;;8.07;3.60;;;;;;;14.74;96.49;149790.16;4928683;28;20239;-57
2023/09/28 03:55:09;;;;;;;6.37;3.40;;;;;;;14.71;95.78;149781.44;4927754;28;20654;-57
2023/09/28 03:57:36;;;;;;;5.50;3.60;;;;;;;14.62;95.64;149760.13;4927926;28;20239;-57
2023/09/28 04:00:04;;;;;;;5.90;3.63;;;;;;;14.57;97.75;149748.91;4931963;28;20237;-57
2023/09/28 04:02:38;;;;;;;6.43;3.67;;;;;;;14.46;98.59;149722.66;4926242;28;20237;-57
2023/09/28 04:05:05;;;;;;;5.27;3.30;;;;;;;14.38;99.74;149702.69;4930400;28;20219;-57
2023/09/28 04:07:32;;;;;;;6.77;3.60;;;;;;;14.30;100.00;149683.97;4928727;28;20764;-57
2023/09/28 04:09:58;;;;;;;7.23;3.40;;;;;;;14.14;100.00;149645.31;4933798;28;20221;-57
2023/09/28 04:12:26;;;;;;;6.00;3.17;;;;;;;14.06;100.00;149624.06;4928666;28;20229;-58
2023/09/28 04:14:53;;;;;;;6.27;3.67;;;;;;;13.91;100.00;149589.09;4929768;28;20240;-58
2023/09/28 04:17:20;;;;;;;5.93;3.60;;;;;;;13.81;100.00;149564.13;4928287;28;20297;-57
2023/09/28 04:19:46;;;;;;;6.63;3.63;;;;;;;13.69;100.00;149536.72;4930206;28;20242;-57
2023/09/28 04:22:13;;;;;;;6.60;3.30;;;;;;;13.53;100.00;149496.78;4927475;28;20240;-57
2023/09/28 04:24:40;;;;;;;5.77;3.50;;;;;;;13.49;100.00;149486.81;4929288;28;20236;-54
2023/09/28 04:27:08;;;;;;;4.63;3.00;;;;;;;13.41;100.00;149468.00;4929503;28;20220;-58
2023/09/28 04:29:36;;;;;;;6.20;3.83;;;;;;;13.43;100.00;149474.31;4925162;28;20558;-58
2023/09/28 04:32:03;;;;;;;7.10;3.70;;;;;;;13.39;100.00;149464.28;4928315;28;20240;-58
2023/09/28 04:34:30;;;;;;;8.30;3.60;;;;;;;13.41;100.00;149469.34;4926459;28;20565;-58
2023/09/28 04:37:02;;;;;;;5.70;3.50;;;;;;;13.35;100.00;149454.31;4929568;28;20220;-57
2023/09/28 04:39:29;;;;;;;6.70;3.50;;;;;;;13.33;100.00;149448.06;4928448;28;20233;-57
2023/09/28 04:42:02;;;;;;;5.17;3.43;;;;;;;13.43;98.59;149473.06;4930128;28;20302;-58
2023/09/28 04:44:29;;;;;;;5.97;3.67;;;;;;;13.38;99.67;149461.81;4925231;28;20565;-57
2023/09/28 04:47:04;;;;;;;6.93;3.47;;;;;;;13.38;100.00;149461.81;4928829;28;20236;-57
2023/09/28 04:49:30;;;;;;;5.27;3.57;;;;;;;13.34;100.00;149450.53;4927779;28;20232;-57
2023/09/28 04:52:02;;;;;;;6.57;3.63;;;;;;;13.40;100.00;149466.78;4926613;28;20692;-57
2023/09/28 04:54:29;;;;;;;15.07;3.93;;;;;;;13.40;100.00;149466.78;4926672;28;20247;-58
2023/09/28 04:57:21;;;;;;;8.60;3.50;;;;;;;13.35;100.00;149454.31;4926295;28;20588;-57
2023/09/28 04:59:47;;;;;;;6.97;3.70;;;;;;;13.30;100.00;149441.84;4929788;28;20301;-58
2023/09/28 05:02:15;;;;;;;5.77;3.30;;;;;;;13.29;100.00;149439.34;4926678;28;20271;-56
2023/09/28 05:04:42;;;;;;;8.27;3.80;;;;;;;13.25;100.00;149430.59;4930252;28;20224;-57
2023/09/28 05:07:09;;;;;;;7.67;4.20;;;;;;;13.27;100.00;149435.56;4927934;28;20228;-58
2023/09/28 05:09:38;;;;;;;6.37;3.67;;;;;;;13.28;100.00;149436.84;4928560;28;20240;-57
2023/09/28 05:12:05;;;;;;;6.83;4.10;;;;;;;13.29;100.00;149440.56;4929932;28;20656;-54
2023/09/28 05:14:32;;;;;;;6.63;3.73;;;;;;;13.29;100.00;149440.56;4927282;28;20227;-54
2023/09/28 05:17:02;;;;;;;5.57;3.70;;;;;;;13.33;100.00;149449.31;4927665;28;20231;-58
2023/09/28 05:19:31;;;;;;;9.27;3.97;;;;;;;13.40;100.00;149466.78;4925892;28;20244;-57
2023/09/28 05:22:02;;;;;;;10.40;5.10;;;;;;;13.43;100.00;149474.31;4928168;28;20240;-58
2023/09/28 05:24:29;;;;;;;6.80;4.57;;;;;;;13.47;100.00;149483.03;4925999;28;20242;-57
2023/09/28 05:27:02;;;;;;;7.93;4.17;;;;;;;13.45;100.00;149476.81;4934169;28;21056;-56
2023/09/28 05:29:30;;;;;;;8.27;4.30;;;;;;;13.40;100.00;149465.53;4929226;28;20285;-57
2023/09/28 05:32:04;;;;;;;9.33;4.37;;;;;;;13.38;100.00;149461.81;4942034;28;20235;-58
2023/09/28 05:34:32;;;;;;;7.60;4.50;;;;;;;13.33;100.00;149448.06;4925979;28;20294;-57
2023/09/28 05:37:03;;;;;;;6.53;4.33;;;;;;;13.30;100.00;149441.84;4928169;28;20291;-58
2023/09/28 05:39:29;;;;;;;7.70;4.40;;;;;;;13.32;100.00;149445.56;4925952;28;20245;-57
2023/09/28 05:42:01;;;;;;;7.27;4.50;;;;;;;13.28;100.00;149436.84;4929111;28;20311;-56
2023/09/28 05:44:29;;;;;;;5.20;3.97;;;;;;;13.22;100.00;149421.88;4923496;28;20243;-56
2023/09/28 05:47:21;;;;;;;6.50;4.30;;;;;;;13.17;100.00;149409.41;4927469;28;20722;-58
2023/09/28 05:49:49;;;;;;;7.60;4.43;;;;;;;13.12;100.00;149398.19;4931691;28;20657;-58
2023/09/28 05:52:15;;;;;;;7.07;3.93;;;;;;;13.09;100.00;149391.94;4931801;28;20986;-58
2023/09/28 05:54:43;;;;;;;6.53;3.63;;;;;;;13.09;100.00;149391.94;4933694;28;20232;-58
2023/09/28 05:57:10;;;;;;;5.27;3.97;;;;;;;13.08;100.00;149389.44;4930154;28;20775;-58
2023/09/28 05:59:36;;;;;;;7.27;3.73;;;;;;;13.08;100.00;149388.22;4931408;28;20287;-58
2023/09/28 06:02:03;;;;;;;5.97;4.00;;;;;;;13.09;100.00;149391.94;4925701;28;20238;-55
2023/09/28 06:04:30;;;;;;;8.17;4.53;;;;;;;13.13;100.00;149401.91;4928463;28;20230;-56
2023/09/28 06:07:04;;;;;;;8.10;4.27;;;;;;;13.19;100.00;149415.66;4932153;28;20252;-57
2023/09/28 06:09:30;;;;;;;6.17;3.30;;;;;;;13.22;100.00;149423.16;4929651;28;20291;-57
2023/09/28 06:12:02;;;;;;;5.43;3.70;;;;;;;13.24;100.00;149428.13;4930855;28;20228;-57
2023/09/28 06:14:29;;;;;;;7.00;3.70;;;;;;;13.36;100.00;149455.53;4925728;28;20255;-56
2023/09/28 06:17:20;;;;;;;9.83;3.77;;;;;;;13.34;100.00;149450.53;4927444;28;20318;-57
2023/09/28 06:19:47;;;;;;;6.23;3.33;;;;;;;13.43;100.00;149474.31;4931739;28;20716;-57
2023/09/28 06:22:15;;;;;;;6.37;3.00;;;;;;;13.55;100.00;149501.78;4941027;28;20702;-55
2023/09/28 06:24:42;;;;;;;6.23;3.10;;;;;;;13.56;100.00;149504.28;4932093;28;20231;-57
2023/09/28 06:27:08;;;;;;;5.83;3.70;;;;;;;13.63;100.00;149520.47;4929513;28;20225;-57
2023/09/28 06:29:35;;;;;;;5.53;3.10;;;;;;;13.69;100.00;149535.47;4932818;28;20246;-58
2023/09/28 06:32:04;;;;;;;7.73;3.33;;;;;;;13.71;100.00;149541.72;4933159;28;20231;-55
2023/09/28 06:34:30;;;;;;;7.70;3.20;;;;;;;13.85;100.00;149574.13;4931555;28;20687;-57
2023/09/28 06:37:03;;;;;;;4.60;2.53;;;;;;;13.92;100.00;149591.59;4930521;28;20327;-54
2023/09/28 06:39:31;;;;;;;5.30;2.90;;;;;;;14.05;100.00;149622.81;4925098;28;20244;-56
2023/09/28 06:42:03;;;;;;;7.37;3.47;;;;;;;14.02;100.00;149615.34;4930749;28;20263;-57
2023/09/28 06:44:30;;;;;;;5.00;3.43;;;;;;;14.06;100.00;149624.06;4926706;28;20284;-57
2023/09/28 06:47:02;;;;;;;6.40;2.83;;;;;;;14.07;100.00;149627.81;4933967;28;20756;-57
2023/09/28 06:49:29;;;;;;;5.40;3.20;;;;;;;14.16;100.00;149650.28;4929582;28;20597;-57
2023/09/28 06:52:01;;;;;;;6.60;3.23;;;;;;;14.21;100.00;149660.28;4930939;28;20233;-58
2023/09/28 06:54:28;;;;;;;5.13;2.50;;;;;;;14.25;100.00;149671.50;4927242;28;20332;-57
2023/09/28 06:57:20;;;;;;;4.00;2.47;;;;;;;14.26;100.00;149672.75;4926502;28;20692;-55
2023/09/28 06:59:47;;;;;;;3.83;2.63;;;;;;;14.31;100.00;149686.47;4931225;28;20221;-57
2023/09/28 07:02:14;;;;;;;4.07;2.73;;;;;;;14.35;100.00;149695.19;4927632;28;20229;-58
2023/09/28 07:04:41;;;;;;;3.57;2.60;;;;;;;14.42;100.00;149712.69;4932752;28;20303;-56
2023/09/28 07:07:07;;;;;;;3.93;2.50;;;;;;;14.49;100.00;149728.94;4929883;28;20574;-57
2023/09/28 07:09:34;;;;;;;4.20;2.70;;;;;;;14.53;100.00;149737.66;4930385;28;20233;-58
2023/09/28 07:12:02;;;;;;;4.57;2.90;;;;;;;14.57;100.00;149748.91;4932324;28;20237;-55
2023/09/28 07:14:30;;;;;;;4.47;3.23;;;;;;;14.58;100.00;149751.41;4927840;28;20252;-57
2023/09/28 07:17:03;;;;;;;3.10;2.40;;;;;;;14.63;100.00;149761.41;4930384;28;20238;-58
2023/09/28 07:19:30;;;;;;;3.93;2.53;;;;;;;14.68;100.00;149775.13;4929381;28;20716;-58
2023/09/28 07:22:02;;;;;;;3.10;2.07;;;;;;;14.78;100.00;149797.63;4927589;28;20344;-56
2023/09/28 07:24:33;;;;;;;4.07;2.27;;;;;;;14.83;100.00;149811.41;4927961;28;20242;-58
2023/09/28 07:27:02;;;;;;;3.50;2.23;;;;;;;14.91;99.62;149831.34;4932277;28;20228;-58
2023/09/28 07:29:30;;;;;;;4.03;2.43;;;;;;;15.03;98.11;149860.09;4927169;28;20245;-58
2023/09/28 07:32:02;;;;;;;4.00;2.17;;;;;;;15.18;97.76;149896.28;4928477;28;20239;-58
2023/09/28 07:34:29;;;;;;;4.63;2.97;;;;;;;15.39;97.97;149946.25;4927996;28;20689;-57
2023/09/28 07:37:21;;;;;;;6.63;2.73;;;;;;;15.59;97.04;149993.75;4926350;28;20232;-56
2023/09/28 07:39:50;;;;;;;8.07;3.93;;;;;;;15.78;95.50;150041.22;4930319;28;20324;-58
2023/09/28 07:42:16;;;;;;;8.63;3.83;;;;;;;16.00;94.82;150093.72;4930785;28;20230;-58
2023/09/28 07:44:44;;;;;;;10.20;4.40;;;;;;;16.14;94.94;150126.22;4932086;28;20793;-58
2023/09/28 07:47:11;;;;;;;10.30;4.00;;;;;;;16.28;93.78;150161.22;4927049;28;20218;-56
2023/09/28 07:49:38;;;;;;;6.90;4.23;;;;;;;16.42;93.33;150193.72;4931496;28;20244;-57
2023/09/28 07:52:08;;;;;;;25.53;5.13;;;;;;;16.52;95.00;150218.72;4930890;28;20215;-57
2023/09/28 07:54:35;;;;;;;15.67;4.73;;;;;;;16.60;95.19;150238.72;4928191;28;20239;-57
2023/09/28 07:57:04;;;;;;;16.37;4.33;;;;;;;16.69;95.10;150259.97;4927769;28;20230;-58
2023/09/28 07:59:31;;;;;;;10.93;4.27;;;;;;;16.77;95.33;150278.75;4926935;28;20232;-57
2023/09/28 08:02:09;;;;;;;9.93;3.53;;;;;;;16.80;96.32;150287.47;4925766;28;20238;-56
2023/09/28 08:04:36;;;;;;;5.80;3.50;;;;;;;16.85;97.12;150297.47;4925637;28;20232;-58
2023/09/28 08:07:03;;;;;;;6.53;3.43;;;;;;;16.96;96.52;150324.97;4928934;28;20237;-58
2023/09/28 08:09:30;;;;;;;9.77;3.43;;;;;;;17.04;95.99;150343.75;4930365;28;20269;-57
2023/09/28 08:12:02;;;;;;;5.37;3.40;;;;;;;17.14;96.03;150368.78;4930604;28;20221;-57
2023/09/28 08:14:29;;;;;;;6.33;2.90;;;;;;;17.20;96.34;150383.78;4928382;28;20241;-54
2023/09/28 08:17:22;;;;;;;5.10;2.87;;;;;;;17.32;95.32;150412.56;4926768;28;20248;-58
2023/09/28 08:19:48;;;;;;;4.57;2.60;;;;;;;17.41;93.83;150435.09;4929656;28;20718;-56
2023/09/28 08:22:15;;;;;;;6.20;2.50;;;;;;;17.53;91.10;150463.84;4927220;28;20690;-58
2023/09/28 08:24:43;;;;;;;8.73;3.43;;;;;;;17.67;91.85;150497.59;4929607;28;20250;-58
2023/09/28 08:27:11;;;;;;;8.47;4.00;;;;;;;17.79;90.92;150526.41;4927355;28;20230;-58
2023/09/28 08:29:38;;;;;;;10.70;4.60;;;;;;;17.90;91.80;150551.41;4928650;28;20257;-58
2023/09/28 08:32:05;;;;;;;13.13;4.67;;;;;;;17.94;91.90;150562.66;4928616;28;20231;-57
2023/09/28 08:34:35;;;;;;;12.93;5.03;;;;;;;18.00;91.00;150577.72;4928940;28;20242;-59
2023/09/28 08:37:03;;;;;;;8.53;4.90;;;;;;;18.05;91.44;150587.72;4931245;28;20226;-59
2023/09/28 08:39:30;;;;;;;10.50;5.13;;;;;;;18.05;91.30;150588.97;4927749;28;20248;-60
2023/09/28 08:42:04;;;;;;;12.93;5.53;;;;;;;18.09;91.76;150597.75;4931072;28;20228;-60
2023/09/28 08:44:32;;;;;;;11.47;5.57;;;;;;;18.19;91.78;150622.78;4928746;28;20238;-59
2023/09/28 08:47:07;;;;;;;8.87;5.20;;;;;;;18.21;91.02;150627.78;4928356;28;20299;-59
2023/09/28 08:49:37;;;;;;;12.23;5.93;;;;;;;18.31;90.79;150651.53;4920791;28;20243;-59
2023/09/28 08:52:03;;;;;;;9.80;5.03;;;;;;;18.28;91.85;150645.28;4929792;28;20309;-58
2023/09/28 08:54:30;;;;;;;11.47;5.87;;;;;;;18.39;89.84;150671.56;4928917;28;20243;-57
2023/09/28 08:57:02;;;;;;;9.23;5.37;;;;;;;18.41;88.85;150675.34;4929942;28;20219;-57
2023/09/28 08:59:30;;;;;;;8.67;5.53;;;;;;;18.44;88.93;150684.06;4927884;28;20595;-57
2023/09/28 09:02:25;;;;;;;10.80;5.67;;;;;;;18.42;89.31;150677.84;4929458;28;20241;-57
2023/09/28 09:04:53;;;;;;;14.03;5.67;;;;;;;18.49;90.01;150694.09;4926333;28;20219;-57
2023/09/28 09:07:22;;;;;;;11.23;5.63;;;;;;;18.52;91.57;150701.59;4927955;28;20608;-57
2023/09/28 09:09:50;;;;;;;10.00;5.33;;;;;;;18.61;91.50;150722.84;4929193;28;20671;-57
2023/09/28 09:12:18;;;;;;;12.73;5.80;;;;;;;18.73;88.33;150752.91;4925227;28;20223;-57
2023/09/28 09:14:45;;;;;;;8.60;5.30;;;;;;;18.80;88.37;150770.41;4927366;28;20232;-58
2023/09/28 09:17:12;;;;;;;11.43;5.77;;;;;;;18.91;87.79;150796.72;4923754;28;20228;-58
2023/09/28 09:19:38;;;;;;;8.43;4.70;;;;;;;19.06;88.54;150831.84;4928366;28;20595;-58
2023/09/28 09:22:08;;;;;;;13.90;5.60;;;;;;;19.14;88.31;150851.81;4926410;28;20233;-58
2023/09/28 09:24:34;;;;;;;8.93;5.23;;;;;;;19.23;87.10;150874.38;4925604;28;20230;-57
2023/09/28 09:27:03;;;;;;;14.27;5.03;;;;;;;19.23;88.33;150873.13;4928990;28;20239;-58
2023/09/28 09:29:30;;;;;;;7.70;5.10;;;;;;;19.27;87.53;150884.38;4924571;28;20227;-58
2023/09/28 09:32:03;;;;;;;10.37;5.60;;;;;;;19.24;86.22;150876.88;4929584;28;20630;-57
2023/09/28 09:34:31;;;;;;;7.17;4.97;;;;;;;19.29;86.45;150888.16;4926254;28;20329;-55
2023/09/28 09:37:02;;;;;;;6.23;4.40;;;;;;;19.34;86.36;150900.69;4929597;28;20219;-58
2023/09/28 09:39:32;;;;;;;6.80;4.83;;;;;;;19.46;85.91;150930.75;4925659;28;20783;-57
2023/09/28 09:42:02;;;;;;;11.27;5.23;;;;;;;19.62;84.34;150969.53;4928385;28;20242;-56
2023/09/28 09:44:29;;;;;;;9.67;5.10;;;;;;;19.69;83.56;150984.56;4926999;28;20699;-56
2023/09/28 09:47:21;;;;;;;10.20;5.13;;;;;;;19.75;82.81;150999.59;4924448;28;20244;-57
2023/09/28 09:49:48;;;;;;;9.90;4.70;;;;;;;19.75;82.58;150999.59;4926604;28;20238;-57
2023/09/28 09:52:19;;;;;;;6.63;4.70;;;;;;;19.82;81.88;151015.88;4926983;28;20629;-57
2023/09/28 09:54:47;;;;;;;6.70;4.37;;;;;;;19.98;81.60;151054.78;4929645;28;20264;-58
2023/09/28 09:57:16;;;;;;;11.97;4.67;;;;;;;20.05;80.77;151073.53;4924035;28;20770;-58
2023/09/28 09:59:46;;;;;;;8.30;3.90;;;;;;;20.15;79.81;151097.31;4925011;28;20303;-58
2023/09/28 10:02:22;;;;;;;7.07;4.33;;;;;;;20.31;79.63;151134.91;4926993;28;20258;-57
2023/09/28 10:04:53;;;;;;;6.33;4.23;;;;;;;20.42;79.54;151162.47;4928612;28;20277;-58
2023/09/28 10:07:26;;;;;;;9.53;4.53;;;;;;;20.44;77.41;151166.25;4922753;28;20232;-57
2023/09/28 10:09:55;;;;;;;6.47;4.67;;;;;;;20.54;77.81;151190.03;4928063;28;20260;-58
2023/09/28 10:12:22;;;;;;;8.83;4.77;;;;;;;20.63;78.01;151212.59;4925102;28;20252;-56
2023/09/28 10:14:49;;;;;;;6.00;4.00;;;;;;;20.65;76.62;151217.59;4929171;28;20700;-57
2023/09/28 10:17:16;;;;;;;10.60;4.77;;;;;;;20.68;74.97;151223.84;4928339;28;20242;-57
2023/09/28 10:19:44;;;;;;;7.83;4.07;;;;;;;20.77;73.46;151246.41;4927286;28;20236;-57
2023/09/28 10:22:12;;;;;;;6.55;4.40;;;;;;;20.83;74.96;151260.25;4928385;28;20227;-57
2023/09/28 10:24:39;;;;;;;8.17;5.20;;;;;;;20.84;74.33;151262.78;4927781;28;20242;-58
2023/09/28 10:27:11;;;;;;;7.13;4.37;;;;;;;20.92;74.45;151282.81;4927567;28;20353;-58
2023/09/28 10:29:40;;;;;;;6.67;4.60;;;;;;;20.99;72.75;151299.09;4925228;28;20240;-57
2023/09/28 10:32:15;;;;;;;10.00;4.97;;;;;;;20.99;73.35;151299.09;4929335;28;20231;-58
2023/09/28 10:34:43;;;;;;;7.37;4.57;;;;;;;21.04;72.52;151312.91;4928018;28;20702;-57
2023/09/28 10:37:20;;;;;;;6.80;4.10;;;;;;;21.20;69.55;151350.50;4930238;28;20230;-57
2023/09/28 10:39:56;;;;;;;7.67;4.50;;;;;;;21.33;69.10;151381.84;4933257;28;20559;-57
2023/09/28 10:42:26;;;;;;;6.87;4.13;;;;;;;21.41;67.32;151401.91;4927494;28;20307;-58
2023/09/28 10:44:55;;;;;;;6.07;3.87;;;;;;;21.50;66.92;151423.19;4930693;28;20233;-57
2023/09/28 10:47:22;;;;;;;5.37;3.83;;;;;;;21.57;66.77;151439.50;4929225;28;20234;-58
2023/09/28 10:49:58;;;;;;;7.43;4.97;;;;;;;21.65;64.42;151460.84;4929341;28;20723;-58
2023/09/28 10:52:24;;;;;;;9.87;4.30;;;;;;;21.66;65.33;151463.34;4932402;28;20232;-58
2023/09/28 10:54:51;;;;;;;8.67;3.93;;;;;;;21.80;65.88;151495.97;4933916;28;20349;-57
2023/09/28 10:57:18;;;;;;;8.47;4.40;;;;;;;21.76;67.34;151485.91;4929748;28;20217;-58
2023/09/28 10:59:45;;;;;;;10.57;4.67;;;;;;;21.91;67.93;151522.25;4931063;28;20239;-57
2023/09/28 11:02:12;;;;;;;7.13;3.93;;;;;;;22.06;64.74;151558.66;4927972;28;20234;-58
2023/09/28 11:04:40;;;;;;;6.87;4.07;;;;;;;22.11;63.39;151572.44;4930234;28;20241;-56
2023/09/28 11:07:07;;;;;;;7.33;3.70;;;;;;;22.09;63.39;151566.19;4930475;28;20660;-57
2023/09/28 11:09:33;;;;;;;7.27;4.20;;;;;;;22.13;64.57;151576.22;4928754;28;20238;-56
2023/09/28 11:12:08;;;;;;;5.50;4.10;;;;;;;22.26;63.54;151607.56;4930990;28;20267;-56
2023/09/28 11:14:36;;;;;;;5.97;3.97;;;;;;;22.44;63.53;151650.19;4930006;28;20235;-59
2023/09/28 11:17:04;;;;;;;6.03;3.70;;;;;;;22.50;62.45;151665.28;4929448;28;20577;-56
2023/09/28 11:19:31;;;;;;;5.77;4.03;;;;;;;22.46;63.67;151656.50;4925971;28;20259;-58
2023/09/28 11:22:02;;;;;;;9.03;4.27;;;;;;;22.38;63.92;151637.66;4931533;28;20321;-58
2023/09/28 11:24:29;;;;;;;8.80;3.97;;;;;;;22.59;63.81;151686.59;4927061;28;20244;-58
2023/09/28 11:27:21;;;;;;;10.47;4.10;;;;;;;22.54;62.33;151675.34;4927753;28;20779;-58
2023/09/28 11:29:55;;;;;;;6.33;3.77;;;;;;;22.82;62.02;151744.31;4927927;28;20234;-58
2023/09/28 11:32:23;;;;;;;6.70;4.07;;;;;;;22.95;60.85;151774.44;4927049;28;20237;-58